Main page
METAR-TAF:

METAR-TAF

Airports :

Durham, England

Durham Tees Valley Airport

latitude: 54-31N, longitude: 001-25W, elevation: 37 m

Current weather observation

The report was made 12 minutes ago, at 07:20 UTC
Wind 9 kt from the West/Southwest, varying between South/Southwest and West
Temperature 10°C
Humidity 71%
Pressure 1009 hPa
Visibility 10 km or more
Few clouds at a height of 3000 ft

METAR: EGNV 230720Z 24009KT 200V270 9999 FEW030 10/05 Q1009

Time: 08:32 (07:32 UTC)

Forecast

The report was made 2 hours and 7 minutes ago, at 05:25 UTC
Forecast valid from 23 at 06 UTC to 23 at 15 UTC
Wind 12 kt from the West/Southwest
Visibility 10 km or more
Few clouds at a height of 2000 ft
Scattered clouds at a height of 4000 ft
Probability 30% :
Temporary
from 23 at 12 UTC to 23 at 15 UTC
Wind 15 kt from the Southwest with gusts up to 25 kt

TAF: EGNV 230525Z 2306/2315 24012KT 9999 FEW020 SCT040 PROB30 TEMPO 2312/2315 23015G25KT

Weather observations and forecasts of more than 4000 airports (METAR and TAF reports).

The available stations are represented by yellow and red dots on the map.

Hover mouse over dot to see the name of the station.

Then click to see weather observations and forecasts.

To change the map : click on the green buttons with a black cross to zoom in, on the green button with a dash to zoom out, or on the green arrows for adjacent maps.


METAR-TAF: